Time;durP1;ratioP1;P1;durP2;ratioP2;P2;SDS_P1;SDS_P2;PMS_P1;PMS_P2;Temp;Humidity;BMP_temperature;BMP_pressure;BME280_temperature;BME280_humidity;BME280_pressure;Samples;Min_cycle;Max_cycle;Signal;HPM_P1;HPM_P2
2022/04/01 00:02:05;;;;;;;22.00;4.25;;;;;;;16.47;55.09;98341.47;5053263;28;20021;-37
2022/04/01 00:04:30;;;;;;;23.48;4.97;;;;;;;16.23;55.76;98307.22;5052890;28;20139;-40
2022/04/01 00:06:56;;;;;;;22.35;4.35;;;;;;;16.27;54.95;98305.59;5053128;28;20152;-42
2022/04/01 00:09:22;;;;;;;18.20;4.65;;;;;;;16.28;55.30;98299.16;5053503;28;20024;-37
2022/04/01 00:11:48;;;;;;;19.92;4.90;;;;;;;16.11;56.47;98290.66;5053261;28;20197;-38
2022/04/01 00:14:13;;;;;;;19.85;5.00;;;;;;;15.55;58.82;98272.81;5052729;28;20036;-38
2022/04/01 00:16:39;;;;;;;25.00;5.45;;;;;;;16.04;56.93;98266.78;5052805;28;20056;-44
2022/04/01 00:19:05;;;;;;;22.85;5.05;;;;;;;16.12;56.49;98230.53;5053067;28;20078;-37
2022/04/01 00:21:31;;;;;;;21.98;5.15;;;;;;;16.01;57.28;98211.00;5052637;28;20068;-37
2022/04/01 00:23:56;;;;;;;20.42;5.25;;;;;;;15.74;58.06;98251.63;5051370;28;20029;-36
2022/04/01 00:26:21;;;;;;;18.90;4.93;;;;;;;15.98;57.26;98215.03;5052422;28;20555;-37
2022/04/01 00:28:47;;;;;;;21.00;4.40;;;;;;;15.88;57.15;98204.38;5052265;28;20404;-37
2022/04/01 00:31:13;;;;;;;26.60;4.72;;;;;;;15.83;56.94;98172.19;5051629;28;20603;-37
2022/04/01 00:33:39;;;;;;;26.25;5.85;;;;;;;15.64;57.61;98143.28;5052012;28;20028;-37
2022/04/01 00:36:05;;;;;;;20.15;5.07;;;;;;;15.99;57.31;98156.81;5052282;28;20117;-37
2022/04/01 00:38:30;;;;;;;22.00;4.65;;;;;;;15.80;57.27;98154.78;5052265;28;20167;-38
2022/04/01 00:40:58;;;;;;;20.00;5.03;;;;;;;15.48;59.21;98179.28;5052384;28;20112;-38
2022/04/01 00:43:32;;;;;;;20.10;4.93;;;;;;;15.99;57.54;98160.31;5052654;28;20032;-38
2022/04/01 00:45:58;;;;;;;18.05;5.40;;;;;;;15.93;57.92;98200.84;5052777;28;20025;-37
2022/04/01 00:48:24;;;;;;;23.42;5.28;;;;;;;15.28;59.67;98168.63;5050930;28;20135;-37
2022/04/01 00:50:50;;;;;;;23.63;5.63;;;;;;;15.38;59.48;98171.25;5052566;28;20051;-37
2022/04/01 00:53:19;;;;;;;30.95;5.15;;;;;;;15.83;58.48;98153.41;5052722;28;20465;-38
2022/04/01 00:55:46;;;;;;;26.77;5.20;;;;;;;15.19;59.96;98173.72;5052193;28;20029;-39
2022/04/01 00:58:12;;;;;;;20.30;4.47;;;;;;;14.76;61.37;98138.47;5051718;28;20469;-37
2022/04/01 01:00:38;;;;;;;23.60;5.07;;;;;;;15.16;60.06;98091.22;5052347;28;20035;-38
2022/04/01 01:03:07;;;;;;;22.92;5.80;;;;;;;15.58;58.90;98119.47;5052406;28;20036;-37
2022/04/01 01:05:33;;;;;;;15.80;4.70;;;;;;;15.01;60.13;98100.13;5052479;28;20056;-38
2022/04/01 01:07:59;;;;;;;21.85;5.30;;;;;;;14.63;61.93;98097.78;5052404;28;20052;-38
2022/04/01 01:10:25;;;;;;;16.77;5.13;;;;;;;14.82;60.88;98054.38;5052084;28;20024;-37
2022/04/01 01:12:51;;;;;;;16.67;4.90;;;;;;;14.97;60.31;98101.75;5051904;28;20029;-38
2022/04/01 01:15:18;;;;;;;16.42;4.70;;;;;;;14.88;60.39;98093.44;5051743;28;20025;-37
2022/04/01 01:17:45;;;;;;;20.23;4.63;;;;;;;14.82;60.51;98054.38;5052216;28;20052;-37
2022/04/01 01:20:12;;;;;;;13.45;4.10;;;;;;;15.16;59.46;98118.03;5051569;28;20033;-37
2022/04/01 01:22:42;;;;;;;17.58;4.45;;;;;;;15.56;57.81;98169.88;5052280;28;20028;-37
2022/04/01 01:25:10;;;;;;;20.83;4.57;;;;;;;15.22;58.92;98191.94;5051607;28;20079;-37
2022/04/01 01:27:36;;;;;;;19.70;4.55;;;;;;;15.82;56.62;98152.63;5051386;28;20535;-37
2022/04/01 01:30:04;;;;;;;20.25;4.65;;;;;;;16.00;56.62;98131.59;5051641;28;20044;-37
2022/04/01 01:32:32;;;;;;;22.40;4.85;;;;;;;15.48;57.91;98124.84;5050709;28;20033;-37
2022/04/01 01:35:02;;;;;;;18.48;4.90;;;;;;;15.48;58.62;98157.84;5051848;28;20064;-37
2022/04/01 01:37:28;;;;;;;;;;;;;;;16.36;55.48;98137.53;5052683;28;20102;-37
2022/04/01 01:39:53;;;;;;;20.50;4.75;;;;;;;15.51;57.38;98127.78;5051896;28;20302;-38
2022/04/01 01:42:19;;;;;;;15.00;4.35;;;;;;;15.09;59.23;98168.41;5051240;28;20040;-36
2022/04/01 01:44:45;;;;;;;23.08;5.18;;;;;;;15.57;57.92;98161.56;5051531;28;20484;-36
2022/04/01 01:47:11;;;;;;;16.90;5.03;;;;;;;15.88;56.73;98182.09;5051658;28;20029;-37
2022/04/01 01:49:36;;;;;;;25.10;4.75;;;;;;;15.26;58.38;98179.59;5051419;28;20024;-37
2022/04/01 01:54:49;;;;;;;17.63;4.55;;;;;;;15.59;57.17;98113.84;5051611;28;20040;-38
2022/04/01 01:57:23;;;;;;;22.48;5.65;;;;;;;14.96;59.36;98095.56;5051515;28;20111;-37
2022/04/01 01:59:50;;;;;;;20.77;4.63;;;;;;;15.01;59.30;98196.53;5051376;28;20465;-37
2022/04/01 02:02:17;;;;;;;19.02;4.72;;;;;;;15.44;57.69;98132.66;5049650;28;20092;-37
2022/04/01 02:04:43;;;;;;;23.98;5.35;;;;;;;15.48;57.44;98109.59;5051205;28;20461;-37
2022/04/01 02:07:10;;;;;;;23.25;5.28;;;;;;;14.79;59.33;98130.69;5051386;28;20053;-37
2022/04/01 02:09:36;;;;;;;23.80;5.18;;;;;;;14.95;58.42;98103.88;5051537;28;20040;-36
2022/04/01 02:12:03;;;;;;;21.90;5.55;;;;;;;14.79;58.85;98038.84;5051405;28;20027;-39
2022/04/01 02:14:30;;;;;;;24.55;5.15;;;;;;;15.08;57.75;98122.06;5050783;28;20029;-36
2022/04/01 02:16:57;;;;;;;27.27;5.13;;;;;;;14.88;57.58;98168.44;5051298;28;20048;-39
2022/04/01 02:19:23;;;;;;;26.35;5.00;;;;;;;15.49;55.66;98097.00;5051095;28;20029;-37
2022/04/01 02:21:51;;;;;;;24.20;5.15;;;;;;;15.38;55.79;98059.53;5051245;28;20461;-37
2022/04/01 02:24:18;;;;;;;17.08;4.78;;;;;;;14.95;56.83;98040.41;5050797;28;20492;-37
2022/04/01 02:26:47;;;;;;;38.75;5.32;;;;;;;15.01;57.83;98146.44;5051272;28;20504;-38
2022/04/01 02:29:14;;;;;;;30.33;5.00;;;;;;;15.30;56.87;98096.81;5050936;28;20037;-38
2022/04/01 02:31:41;;;;;;;37.28;5.47;;;;;;;15.41;55.53;98060.84;5050818;28;20462;-38
2022/04/01 02:34:06;;;;;;;22.70;4.97;;;;;;;15.08;57.12;98089.91;5050899;28;20052;-37
2022/04/01 02:36:33;;;;;;;30.33;5.47;;;;;;;15.11;56.93;98067.13;5051154;28;20033;-38
2022/04/01 02:38:59;;;;;;;32.78;5.35;;;;;;;15.79;54.85;98083.44;5050567;28;20029;-38
2022/04/01 02:41:25;;;;;;;22.17;5.05;;;;;;;15.93;53.46;98083.59;5051175;28;20045;-38
2022/04/01 02:43:52;;;;;;;27.10;5.65;;;;;;;15.44;55.03;98130.00;5050836;28;20035;-38
2022/04/01 02:46:17;;;;;;;25.35;5.38;;;;;;;16.02;53.51;98154.38;5050693;28;20017;-37
2022/04/01 02:48:43;;;;;;;28.40;5.22;;;;;;;16.59;52.46;98116.41;5050696;28;20020;-37
2022/04/01 02:51:08;;;;;;;26.20;5.20;;;;;;;16.22;52.60;98123.13;5050624;28;20029;-38
2022/04/01 02:53:34;;;;;;;28.13;5.80;;;;;;;16.12;53.63;98123.19;5050545;28;20024;-38
2022/04/01 02:56:00;;;;;;;26.00;6.22;;;;;;;16.65;52.07;98135.94;5053312;28;20029;-38
2022/04/01 02:58:25;;;;;;;25.65;5.10;;;;;;;16.37;52.69;98125.72;5054704;28;20463;-38
2022/04/01 03:00:51;;;;;;;28.65;5.40;;;;;;;15.47;54.82;98129.41;5054486;28;20029;-38
2022/04/01 03:03:16;;;;;;;29.23;5.20;;;;;;;15.48;55.50;98135.56;5054417;28;20025;-38
2022/04/01 03:05:45;;;;;;;25.38;5.55;;;;;;;16.32;52.83;98141.84;5053970;28;20393;-38
2022/04/01 03:08:11;;;;;;;27.30;4.57;;;;;;;15.81;54.48;98169.00;5054482;28;20036;-38
2022/04/01 03:10:39;;;;;;;23.77;5.07;;;;;;;15.39;56.19;98183.59;5054133;28;20029;-37
2022/04/01 03:13:08;;;;;;;21.50;4.68;;;;;;;15.98;54.83;98176.69;5054077;28;20028;-37
2022/04/01 03:15:34;;;;;;;18.98;4.45;;;;;;;15.74;55.32;98188.06;5054170;28;20035;-37
2022/04/01 03:18:00;;;;;;;17.65;5.03;;;;;;;15.20;57.25;98194.09;5054156;28;20068;-39
2022/04/01 03:20:29;;;;;;;21.88;5.07;;;;;;;15.23;57.81;98212.31;5054562;28;20032;-38
2022/04/01 03:22:55;;;;;;;26.55;5.85;;;;;;;16.04;55.92;98202.41;5054148;28;20100;-38
2022/04/01 03:25:21;;;;;;;21.10;4.97;;;;;;;15.54;56.97;98213.03;5054088;28;20105;-39
2022/04/01 03:27:47;;;;;;;20.73;5.20;;;;;;;14.92;58.88;98188.25;5053164;28;20033;-38
2022/04/01 03:30:14;;;;;;;21.83;5.45;;;;;;;15.04;58.84;98180.75;5053956;28;20040;-38
2022/04/01 03:32:41;;;;;;;20.00;5.10;;;;;;;15.28;58.08;98174.00;5054112;28;20389;-39
2022/04/01 03:35:14;;;;;;;19.60;4.93;;;;;;;14.88;59.29;98165.75;5053726;28;20094;-38
2022/04/01 03:37:46;;;;;;;21.58;5.05;;;;;;;15.21;58.56;98177.75;5054020;28;20078;-37
2022/04/01 03:40:14;;;;;;;37.70;15.02;;;;;;;15.82;56.83;98157.16;5054056;28;20110;-38
2022/04/01 03:42:47;;;;;;;28.17;8.75;;;;;;;14.89;59.00;98172.72;5054159;28;20086;-38
2022/04/01 03:45:14;;;;;;;111.45;54.78;;;;;;;14.37;61.51;98185.25;5053860;28;20037;-37
2022/04/01 03:47:48;;;;;;;46.63;20.30;;;;;;;14.98;59.17;98143.50;5053443;28;20116;-37
2022/04/01 03:50:16;;;;;;;26.27;9.63;;;;;;;15.44;57.57;98168.31;5053232;28;20033;-38
2022/04/01 03:52:46;;;;;;;21.92;5.40;;;;;;;14.48;60.54;98180.72;5053095;28;20025;-43
2022/04/01 03:55:12;;;;;;;20.02;5.50;;;;;;;14.32;61.68;98169.22;5052880;28;20513;-37
2022/04/01 03:57:40;;;;;;;28.05;5.13;;;;;;;14.79;60.14;98146.75;5053367;28;20021;-38
2022/04/01 04:00:12;;;;;;;21.90;5.30;;;;;;;14.38;61.24;98160.13;5053678;28;20024;-37
2022/04/01 04:02:40;;;;;;;27.92;6.07;;;;;;;14.02;62.48;98146.69;5053309;28;20060;-37
2022/04/01 04:05:07;;;;;;;24.45;5.85;;;;;;;14.28;61.61;98146.75;5052957;28;20033;-37
2022/04/01 04:07:33;;;;;;;20.77;5.57;;;;;;;14.38;61.02;98165.47;5052610;28;20080;-37
2022/04/01 04:09:59;;;;;;;30.88;6.38;;;;;;;14.05;62.21;98162.22;5052697;28;20082;-37
2022/04/01 04:12:27;;;;;;;29.75;6.80;;;;;;;14.00;62.44;98172.91;5052546;28;20020;-37
2022/04/01 04:14:53;;;;;;;29.33;7.85;;;;;;;14.58;60.13;98159.38;5052465;28;20562;-38
2022/04/01 04:17:36;;;;;;;19.27;6.13;;;;;;;14.23;60.77;98133.34;5052912;28;20029;-38
2022/04/01 04:20:13;;;;;;;27.55;6.30;;;;;;;13.85;62.00;98144.25;5052317;28;20132;-38
2022/04/01 04:23:00;;;;;;;33.28;6.50;;;;;;;14.28;60.51;98138.72;5051081;28;20023;-37
2022/04/01 04:25:36;;;;;;;25.92;5.95;;;;;;;14.51;59.70;98144.59;5051769;28;20052;-37
2022/04/01 04:28:10;;;;;;;26.60;7.38;;;;;;;14.24;60.53;98159.00;5052616;28;20419;-38
2022/04/01 04:30:44;;;;;;;26.85;6.70;;;;;;;14.55;60.01;98146.47;5052652;28;20112;-37
2022/04/01 04:33:10;;;;;;;28.90;6.28;;;;;;;14.71;58.99;98136.56;5052393;28;20020;-38
2022/04/01 04:35:38;;;;;;;26.80;7.68;;;;;;;14.13;60.52;98142.16;5052322;28;20570;-37
2022/04/01 04:38:06;;;;;;;36.22;6.50;;;;;;;14.38;60.05;98144.06;5049294;28;20481;-38
2022/04/01 04:40:34;;;;;;;40.40;6.83;;;;;;;14.77;58.75;98142.72;5037204;28;20029;-38
2022/04/01 04:43:00;;;;;;;28.63;6.45;;;;;;;14.41;59.10;98166.78;5032229;28;20432;-38
2022/04/01 04:45:27;;;;;;;30.27;6.47;;;;;;;14.64;59.22;98169.00;5032267;28;20122;-37
2022/04/01 04:47:54;;;;;;;27.30;6.65;;;;;;;15.19;57.73;98153.13;5031048;28;20104;-40
2022/04/01 04:50:21;;;;;;;34.25;7.00;;;;;;;14.98;57.52;98146.19;5030738;28;20021;-37
2022/04/01 04:52:53;;;;;;;35.88;6.97;;;;;;;14.51;59.25;98142.72;5030249;28;20079;-40
2022/04/01 04:55:19;;;;;;;38.45;10.30;;;;;;;14.71;58.52;98133.91;5030204;28;20456;-38
2022/04/01 04:57:47;;;;;;;36.20;7.10;;;;;;;15.01;57.12;98126.91;5030825;28;20049;-38
2022/04/01 05:00:19;;;;;;;35.63;7.07;;;;;;;14.94;57.56;98129.06;5029502;28;20068;-38
2022/04/01 05:03:06;;;;;;;41.10;7.22;;;;;;;15.20;56.15;98156.59;5030689;28;20025;-37
2022/04/01 05:05:51;;;;;;;31.42;7.30;;;;;;;15.91;55.49;98152.84;5029125;28;20188;-38
2022/04/01 05:08:25;;;;;;;32.28;7.05;;;;;;;16.02;54.25;98151.69;5032044;28;20029;-37
2022/04/01 05:11:09;;;;;;;38.50;6.85;;;;;;;16.64;51.78;98159.31;5049763;28;20114;-39
2022/04/01 05:13:55;;;;;;;33.95;7.15;;;;;;;16.52;52.84;98154.28;5049251;28;20489;-38
2022/04/01 05:16:44;;;;;;;35.03;6.20;;;;;;;16.74;52.04;98151.16;5051059;28;20033;-38
2022/04/01 05:19:12;;;;;;;34.45;7.25;;;;;;;16.96;51.56;98150.75;5050669;28;20585;-38
2022/04/01 05:22:02;;;;;;;35.83;7.10;;;;;;;17.06;51.53;98144.47;5051138;28;20028;-38
2022/04/01 05:24:37;;;;;;;39.92;7.47;;;;;;;17.06;50.83;98138.25;5051149;28;20111;-38
2022/04/01 05:27:05;;;;;;;35.58;7.53;;;;;;;17.06;50.70;98133.72;5050889;28;20486;-37
2022/04/01 05:29:37;;;;;;;36.85;6.35;;;;;;;17.28;50.36;98145.84;5051160;28;20064;-40
2022/04/01 05:32:05;;;;;;;39.15;7.40;;;;;;;17.54;49.53;98130.19;5051043;28;20032;-38
2022/04/01 05:34:41;;;;;;;34.22;7.45;;;;;;;17.31;50.82;98119.19;5050921;28;20064;-39
2022/04/01 05:37:08;;;;;;;36.00;7.60;;;;;;;17.75;48.92;98134.22;5050675;28;20033;-38
2022/04/01 05:39:35;;;;;;;36.13;7.55;;;;;;;17.72;48.95;98131.31;5051108;28;20056;-38
2022/04/01 05:42:02;;;;;;;42.88;8.60;;;;;;;18.18;48.92;98136.06;5050702;28;20162;-38
2022/04/01 05:44:29;;;;;;;33.67;7.68;;;;;;;18.46;47.62;98130.81;5050275;28;20020;-38
2022/04/01 05:46:55;;;;;;;35.30;8.40;;;;;;;18.53;47.14;98117.75;5050340;28;20024;-37
2022/04/01 05:49:24;;;;;;;42.15;8.18;;;;;;;18.78;47.13;98123.81;5050964;28;20143;-38
2022/04/01 05:51:50;;;;;;;43.03;7.55;;;;;;;18.52;46.57;98135.00;5050523;28;20028;-38
2022/04/01 05:54:19;;;;;;;36.55;8.35;;;;;;;18.46;47.51;98110.06;5050719;28;20135;-38
2022/04/01 05:56:47;;;;;;;40.08;7.97;;;;;;;18.58;47.49;98128.44;5050033;28;20032;-38
2022/04/01 05:59:15;;;;;;;44.58;7.53;;;;;;;19.03;46.26;98115.28;5050530;28;20044;-38
2022/04/01 06:02:05;;;;;;;40.35;8.13;;;;;;;19.12;45.48;98110.00;5050387;28;20078;-38
2022/04/01 06:04:49;;;;;;;28.98;6.40;;;;;;;18.55;46.98;98110.97;5050213;28;20061;-38
2022/04/01 06:07:36;;;;;;;29.88;7.07;;;;;;;18.82;46.91;98117.56;5050101;28;20056;-37
2022/04/01 06:10:09;;;;;;;32.05;7.43;;;;;;;18.94;46.50;98123.28;5050418;28;20515;-38
2022/04/01 06:12:45;;;;;;;45.72;8.20;;;;;;;18.97;46.73;98119.16;5050138;28;20481;-38
2022/04/01 06:15:17;;;;;;;37.42;8.00;;;;;;;19.06;46.70;98127.38;5050096;28;20031;-37
2022/04/01 06:17:51;;;;;;;39.20;8.30;;;;;;;19.69;45.33;98132.03;5050134;28;20037;-38
2022/04/01 06:20:20;;;;;;;37.00;7.57;;;;;;;20.50;43.91;98127.81;5050483;28;20114;-38
2022/04/01 06:22:58;;;;;;;30.15;7.57;;;;;;;19.95;44.30;98112.59;5050244;28;20031;-37
2022/04/01 06:25:30;;;;;;;33.90;7.18;;;;;;;20.24;44.17;98128.44;5050018;28;20025;-37
2022/04/01 06:28:16;;;;;;;37.00;7.30;;;;;;;20.96;42.97;98115.88;5050310;28;20029;-37
2022/04/01 06:30:44;;;;;;;40.38;7.65;;;;;;;20.80;42.78;98103.84;5052306;28;20037;-37
2022/04/01 06:33:40;;;;;;;42.97;7.40;;;;;;;20.85;42.07;98112.63;5054149;28;20040;-37
2022/04/01 06:36:07;;;;;;;37.80;7.28;;;;;;;20.95;42.52;98105.34;5054162;28;20045;-38
2022/04/01 06:38:40;;;;;;;39.45;7.25;;;;;;;20.98;42.11;98094.72;5054376;28;20041;-38
2022/04/01 06:41:08;;;;;;;37.80;7.10;;;;;;;21.10;41.32;98104.94;5054033;28;20020;-38
2022/04/01 06:43:35;;;;;;;37.20;7.35;;;;;;;21.93;40.77;98106.09;5053539;28;20181;-37
2022/04/01 06:46:02;;;;;;;39.75;6.85;;;;;;;22.65;38.08;98097.28;5054315;28;20053;-38
2022/04/01 06:48:28;;;;;;;39.35;8.40;;;;;;;22.54;37.98;98106.88;5054146;28;20028;-39
2022/04/01 06:50:56;;;;;;;38.38;7.45;;;;;;;23.16;37.07;98102.88;5053780;28;20020;-37
2022/04/01 06:53:21;;;;;;;32.17;7.40;;;;;;;23.75;35.43;98102.06;5053555;28;20037;-38
2022/04/01 06:55:47;;;;;;;42.88;7.60;;;;;;;23.85;34.83;98103.59;5053632;28;20029;-38
2022/04/01 06:58:13;;;;;;;31.50;8.38;;;;;;;23.93;34.60;98099.22;5053450;28;20039;-37
2022/04/01 07:00:40;;;;;;;32.58;7.55;;;;;;;24.66;34.15;98095.25;5053402;28;20032;-37
2022/04/01 07:03:07;;;;;;;38.60;7.30;;;;;;;24.96;32.90;98104.03;5053823;28;20021;-37
2022/04/01 07:05:34;;;;;;;43.60;7.32;;;;;;;25.34;32.44;98094.75;5052960;28;20086;-37
2022/04/01 07:08:02;;;;;;;44.90;8.25;;;;;;;25.66;31.76;98087.56;5053183;28;20465;-37
2022/04/01 07:10:27;;;;;;;33.15;7.22;;;;;;;26.45;31.15;98094.50;5053535;28;20025;-37
2022/04/01 07:12:53;;;;;;;37.92;7.65;;;;;;;26.89;30.12;98083.56;5053531;28;20021;-37
2022/04/01 07:15:19;;;;;;;38.00;7.72;;;;;;;26.99;29.61;98068.59;5052915;28;20028;-37
2022/04/01 07:17:44;;;;;;;46.70;7.93;;;;;;;27.14;29.26;98075.19;5052554;28;20040;-37
2022/04/01 07:20:12;;;;;;;35.42;8.10;;;;;;;27.55;28.98;98092.16;5052714;28;20036;-37
2022/04/01 07:22:39;;;;;;;35.90;7.60;;;;;;;28.12;28.53;98077.00;5052862;28;20033;-38
2022/04/01 07:25:05;;;;;;;38.00;8.10;;;;;;;28.44;28.09;98079.53;5052630;28;20025;-38
2022/04/01 07:27:30;;;;;;;37.80;8.25;;;;;;;28.52;27.42;98069.53;5052893;28;20123;-37
2022/04/01 07:29:56;;;;;;;40.83;8.43;;;;;;;28.83;27.62;98080.28;5052453;28;20017;-38
2022/04/01 07:32:32;;;;;;;36.70;8.48;;;;;;;29.22;27.40;98071.91;5052476;28;20075;-37
2022/04/01 07:35:00;;;;;;;45.78;8.55;;;;;;;29.34;27.13;98070.13;5050803;28;20020;-38
2022/04/01 07:37:27;;;;;;;35.53;7.78;;;;;;;28.38;28.20;98067.31;5052801;28;20048;-37
2022/04/01 07:39:54;;;;;;;42.55;8.15;;;;;;;28.53;28.65;98071.91;5050315;28;20029;-38
2022/04/01 07:42:21;;;;;;;38.88;7.72;;;;;;;29.11;27.86;98068.22;5052149;28;20049;-38
2022/04/01 07:44:50;;;;;;;35.60;8.20;;;;;;;28.27;29.54;98062.44;5052025;28;20033;-37
2022/04/01 07:47:16;;;;;;;;;;;;;;;29.60;27.60;98069.31;5052750;28;20124;-37
2022/04/01 07:49:42;;;;;;;40.55;7.95;;;;;;;28.74;28.10;98082.44;5052944;28;20380;-37
2022/04/01 07:52:09;;;;;;;41.03;7.70;;;;;;;28.53;28.63;98074.66;5053253;28;20031;-37
2022/04/01 07:54:35;;;;;;;35.17;8.23;;;;;;;28.80;28.35;98072.78;5052465;28;20378;-36
2022/04/01 07:57:05;;;;;;;34.70;7.82;;;;;;;27.78;28.91;98079.41;5052761;28;20074;-37
2022/04/01 07:59:31;;;;;;;37.45;8.32;;;;;;;28.37;28.40;98090.34;5053155;28;20025;-37
2022/04/01 08:01:56;;;;;;;39.15;7.55;;;;;;;28.62;27.87;98082.66;5052390;28;20028;-37
2022/04/01 08:04:22;;;;;;;36.78;7.22;;;;;;;27.93;28.95;98068.78;5052423;28;20064;-37
2022/04/01 08:06:48;;;;;;;36.08;8.30;;;;;;;27.49;29.65;98061.59;5052386;28;20049;-38
2022/04/01 08:09:14;;;;;;;44.20;9.02;;;;;;;27.87;29.50;98066.31;5052390;28;20450;-37
2022/04/01 08:11:39;;;;;;;38.85;7.68;;;;;;;27.77;29.33;98068.81;5052312;28;20032;-38
2022/04/01 08:14:05;;;;;;;38.80;7.45;;;;;;;28.25;28.91;98078.44;5052010;28;20052;-39
2022/04/01 08:16:30;;;;;;;40.67;7.93;;;;;;;28.75;27.80;98069.56;5051986;28;20028;-36
2022/04/01 08:18:56;;;;;;;47.00;8.57;;;;;;;29.18;27.10;98070.28;5052226;28;20048;-37
2022/04/01 08:21:21;;;;;;;45.00;8.60;;;;;;;28.04;28.05;98073.31;5052333;28;20045;-38
2022/04/01 08:23:47;;;;;;;43.60;8.13;;;;;;;26.78;29.58;98077.84;5051926;28;20020;-38
2022/04/01 08:26:13;;;;;;;40.97;7.50;;;;;;;26.04;30.97;98072.72;5051629;28;20009;-38
2022/04/01 08:28:39;;;;;;;39.45;8.40;;;;;;;27.05;29.53;98059.78;5052015;28;20036;-38
2022/04/01 08:31:06;;;;;;;45.35;8.73;;;;;;;27.47;29.20;98053.78;5052081;28;20131;-38
2022/04/01 08:33:32;;;;;;;48.05;8.23;;;;;;;27.66;27.63;98063.13;5051713;28;20082;-38
2022/04/01 08:35:57;;;;;;;46.78;8.60;;;;;;;28.22;26.79;98060.00;5051894;28;20028;-38
2022/04/01 08:38:23;;;;;;;61.40;9.63;;;;;;;28.06;26.22;98064.75;5051509;28;20094;-38
2022/04/01 08:40:48;;;;;;;43.00;8.13;;;;;;;27.75;26.43;98060.19;5051764;28;20143;-38
2022/04/01 08:43:27;;;;;;;43.35;9.02;;;;;;;28.90;25.26;98035.81;5051482;28;20028;-37
2022/04/01 08:45:54;;;;;;;52.53;8.88;;;;;;;29.08;24.95;98035.28;5051360;28;20028;-38
2022/04/01 08:48:20;;;;;;;41.13;7.57;;;;;;;29.33;24.92;98039.22;5051425;28;20162;-38
2022/04/01 08:50:46;;;;;;;53.30;9.10;;;;;;;29.38;25.15;98040.84;5051602;28;20102;-38
2022/04/01 08:53:12;;;;;;;48.80;8.07;;;;;;;29.81;24.77;98031.25;5049881;28;20091;-38
2022/04/01 08:55:38;;;;;;;46.15;8.10;;;;;;;29.73;24.57;98026.06;5050523;28;20029;-38
2022/04/01 08:58:04;;;;;;;45.28;9.05;;;;;;;29.39;25.11;98015.03;5050631;28;20064;-38
2022/04/01 09:00:30;;;;;;;49.50;8.90;;;;;;;29.09;25.27;98013.00;5051200;28;20127;-38
2022/04/01 09:03:08;;;;;;;50.38;9.45;;;;;;;27.98;26.33;98019.31;5050914;28;20108;-38
2022/04/01 09:05:33;;;;;;;51.95;8.60;;;;;;;27.84;25.77;98008.84;5049769;28;20040;-39
2022/04/01 09:08:08;;;;;;;57.50;9.35;;;;;;;28.12;26.23;98002.38;5046695;28;20404;-39
2022/04/01 09:11:11;;;;;;;44.83;8.18;;;;;;;27.37;26.93;97999.69;5049811;28;20027;-36
2022/04/01 09:13:42;;;;;;;52.00;9.02;;;;;;;27.99;26.13;97999.03;5026296;28;20088;-37
2022/04/01 09:16:08;;;;;;;55.80;9.75;;;;;;;27.66;26.56;97997.56;5045246;28;20489;-37
2022/04/01 09:18:41;;;;;;;46.60;9.30;;;;;;;27.83;26.99;97986.19;5050079;28;20103;-37
2022/04/01 09:21:12;;;;;;;52.33;9.15;;;;;;;28.48;25.92;97981.91;5046746;28;20365;-38
2022/04/01 09:23:39;;;;;;;49.90;8.90;;;;;;;28.12;26.33;97969.56;5046185;28;20041;-38
2022/04/01 09:26:06;;;;;;;57.38;9.63;;;;;;;27.96;26.40;97973.19;5049702;28;20013;-38
2022/04/01 09:28:33;;;;;;;50.58;9.32;;;;;;;27.53;27.16;97980.53;5049592;28;20031;-39
2022/04/01 09:31:06;;;;;;;57.42;9.20;;;;;;;27.40;27.16;97966.22;5049549;28;20029;-37
2022/04/01 09:33:44;;;;;;;55.45;9.30;;;;;;;27.34;27.33;97970.38;5049691;28;20025;-37
2022/04/01 09:36:33;;;;;;;58.78;10.23;;;;;;;28.19;26.37;97961.50;5048140;28;20036;-38
2022/04/01 09:39:00;;;;;;;72.05;10.73;;;;;;;28.41;25.30;97966.19;5030040;28;20026;-37
2022/04/01 09:41:50;;;;;;;61.90;9.93;;;;;;;27.53;26.06;97966.06;5029630;28;20477;-37
2022/04/01 09:44:17;;;;;;;53.30;9.57;;;;;;;27.35;26.27;97958.31;5042699;28;20037;-36
2022/04/01 09:46:48;;;;;;;54.78;9.65;;;;;;;27.73;25.88;97947.75;5050400;28;20044;-38
2022/04/01 09:49:27;;;;;;;51.47;9.50;;;;;;;28.01;25.44;97937.38;5047509;28;20473;-38
2022/04/01 09:51:52;;;;;;;53.75;9.00;;;;;;;28.42;25.53;97945.88;5047083;28;20104;-38
2022/04/01 09:54:18;;;;;;;62.08;9.82;;;;;;;29.18;24.28;97950.56;5049259;28;20116;-37
2022/04/01 09:56:45;;;;;;;51.47;9.50;;;;;;;29.86;23.36;97949.88;5049527;28;20033;-38
2022/04/01 09:59:13;;;;;;;67.32;10.52;;;;;;;30.01;23.08;97938.66;5049438;28;20393;-38
2022/04/01 10:01:40;;;;;;;58.47;9.80;;;;;;;29.12;23.84;97943.03;5049437;28;20078;-38
2022/04/01 10:04:07;;;;;;;54.53;8.98;;;;;;;29.20;24.00;97931.81;5048983;28;20028;-38
2022/04/01 10:06:34;;;;;;;54.95;9.23;;;;;;;29.01;23.94;97929.19;5049228;28;20052;-38
2022/04/01 10:09:03;;;;;;;59.70;9.68;;;;;;;28.00;24.54;97922.09;5049118;28;20116;-36
2022/04/01 10:11:29;;;;;;;45.90;9.35;;;;;;;28.50;24.37;97927.63;5048879;28;20033;-37
2022/04/01 10:14:01;;;;;;;59.30;10.10;;;;;;;28.95;23.67;97923.25;5048780;28;20064;-38
2022/04/01 10:16:27;;;;;;;48.03;9.35;;;;;;;28.62;24.14;97904.81;5048954;28;20055;-38
2022/04/01 10:18:56;;;;;;;58.92;9.13;;;;;;;28.24;24.57;97904.56;5047900;28;20037;-38
2022/04/01 10:21:21;;;;;;;;;;;;;;;29.34;23.95;97909.31;5049564;28;20029;-38
2022/04/01 10:23:56;;;;;;;45.95;8.93;;;;;;;29.69;23.88;97919.09;5048510;28;20261;-37
2022/04/01 10:26:22;;;;;;;51.38;8.88;;;;;;;30.34;22.53;97906.84;5049708;28;20024;-38
2022/04/01 10:28:51;;;;;;;55.70;10.10;;;;;;;30.51;21.74;97890.91;5060591;28;20028;-38
2022/04/01 10:31:18;;;;;;;;;;;;;;;29.42;22.89;97891.03;5055060;28;20090;-38
2022/04/01 10:33:44;;;;;;;50.15;8.70;;;;;;;28.26;24.40;97879.59;5065059;28;19908;-38
2022/04/01 10:36:24;;;;;;;53.08;9.73;;;;;;;28.06;24.43;97876.13;5054959;28;20029;-38
2022/04/01 10:39:10;;;;;;;57.20;9.60;;;;;;;29.04;23.93;97860.03;5057636;28;20036;-38
2022/04/01 10:41:36;;;;;;;53.90;8.70;;;;;;;27.96;24.80;97863.88;5065597;28;20077;-37
2022/04/01 10:44:02;;;;;;;51.05;8.85;;;;;;;28.34;25.39;97861.34;5053777;28;20170;-38
2022/04/01 10:46:27;;;;;;;53.35;9.52;;;;;;;28.78;24.06;97858.88;5060584;28;20017;-38
2022/04/01 10:52:24;;;;;;;47.00;8.98;;;;;;;28.77;24.23;97865.53;5037237;28;20471;-38
2022/04/01 10:55:06;;;;;;;54.15;9.25;;;;;;;29.68;23.51;97870.16;5056301;28;20045;-38
2022/04/01 10:57:44;;;;;;;52.78;8.70;;;;;;;30.06;23.23;97868.97;5065390;28;20035;-38
2022/04/01 11:00:14;;;;;;;56.83;9.40;;;;;;;29.90;23.05;97866.47;5054654;28;20028;-38
2022/04/01 11:02:40;;;;;;;52.50;9.25;;;;;;;30.31;22.30;97871.13;5059154;28;20028;-39
2022/04/01 11:05:31;;;;;;;55.17;9.65;;;;;;;31.59;20.91;97866.75;5062238;28;20340;-36
2022/04/01 11:08:16;;;;;;;42.15;8.73;;;;;;;30.88;21.45;97863.31;5028689;28;20061;-38
2022/04/01 11:11:05;;;;;;;52.42;9.20;;;;;;;29.77;22.16;97846.00;5049601;28;20039;-38
2022/04/01 11:13:30;;;;;;;51.95;8.20;;;;;;;30.84;21.95;97854.25;5051463;28;20108;-38
2022/04/01 11:16:20;;;;;;;52.53;9.30;;;;;;;31.77;21.25;97840.06;5049654;28;20032;-38
2022/04/01 11:19:18;;;;;;;47.85;8.95;;;;;;;32.38;20.39;97844.81;5052594;28;20456;-37
2022/04/01 11:21:45;;;;;;;45.70;8.10;;;;;;;31.86;20.80;97839.69;5052600;28;20642;-37
2022/04/01 11:24:21;;;;;;;47.28;8.32;;;;;;;32.09;20.63;97839.34;5053100;28;20536;-37
2022/04/01 11:26:47;;;;;;;50.53;8.50;;;;;;;32.05;20.05;97820.09;5053006;28;20207;-38
2022/04/01 11:29:24;;;;;;;45.17;8.45;;;;;;;31.85;20.75;97830.66;5052030;28;20025;-38
2022/04/01 11:32:00;;;;;;;49.53;8.20;;;;;;;31.10;21.14;97830.47;5052457;28;20025;-53
2022/04/01 11:34:26;;;;;;;53.20;8.23;;;;;;;30.79;21.60;97835.41;5051290;28;20102;-52
2022/04/01 11:36:59;;;;;;;49.47;8.02;;;;;;;31.21;21.11;97814.03;5051339;28;20484;-52
2022/04/01 11:39:24;;;;;;;48.58;8.07;;;;;;;30.47;21.34;97807.78;5050563;28;20087;-51
2022/04/01 11:41:51;;;;;;;65.20;7.88;;;;;;;30.26;21.81;97806.44;5050472;28;20403;-52
2022/04/01 11:44:17;;;;;;;48.10;8.35;;;;;;;29.58;21.62;97811.34;5050192;28;20669;-53